• Join FlightAware (Why Join?)
  • Login
  • US Flag 
07:34PM EST


 

Airport Tracker/Info


-or-


 

Live Flight TrackerFlight Track Log ✈ ASQ5566 ✈ 08-May-2013 ✈ KCSG - KATL

Flight Track Log - Related Links

Times and Time Zones

All times are in EDT time to prevent confusion due to time zone crossing. See the ASQ5566 flight status page for this flight to view local times or setup timezone preferences in your user account.

Time Position Orientation Groundspeed Altitude Reporting Facility
EDT Latitude Longitude Course Direction KTS MPH feet Rate Location/Type
03:36PM 32.5667 -84.9167 59° Northeast 294 338 6,300  Level Atlanta TRACON
03:37PM 32.6000 -84.8500 59° Northeast 291 335 9,400 1,800 Climbing Atlanta TRACON
03:38PM 32.6500 -84.7500 59° Northeast 355 409 10,000 300 Climbing Atlanta TRACON
03:39PM 32.7000 -84.6333 63° Northeast 384 442 10,000  Level Atlanta TRACON
03:40PM 32.7620 -84.4654 56° Northeast  Level FlightAware Approximate
03:40PM 32.7667 -84.5333 52° Northeast 386 444 10,000  Level Atlanta TRACON
03:41PM 32.8167 -84.4167 63° Northeast 390 449 10,000  Level Atlanta TRACON
03:42PM 32.8500 -84.3000 71° East 392 451 10,000  Level Atlanta TRACON
03:43PM 32.9000 -84.1833 63° Northeast 390 449 10,000  Level Atlanta TRACON
03:44PM 32.9333 -84.0500 73° East 392 451 10,000  Level Atlanta TRACON
03:45PM 32.9667 -83.9333 71° East 393 452 10,000  Level Atlanta TRACON
03:46PM 33.0167 -83.8167 63° Northeast 387 445 10,000  Level Atlanta TRACON
03:47PM 33.0833 -83.7500 40° Northeast 329 379 10,000  Level Atlanta TRACON
03:48PM 33.1667 -83.8000 333° Northwest 273 314 10,000 -60 Level Atlanta TRACON
03:49PM 33.2000 -83.8500 309° West 279 321 9,900 -780 Descending Atlanta TRACON
03:50PM 33.2667 -83.9000 328° Northwest 272 313 8,600 -960 Descending Atlanta TRACON
03:51PM 33.3500 -83.9333 342° North 273 314 8,000 -300 Descending Atlanta TRACON
03:52PM 33.4167 -83.9333 360° North 271 312 8,000  Level Atlanta TRACON
03:53PM 33.4833 -83.9500 348° North 265 305 8,000 -240 Level Atlanta TRACON
03:54PM 33.5500 -83.9500 360° North 268 308 7,600 -900 Descending Atlanta TRACON
03:55PM 33.6000 -84.0000 320° Northwest 257 296 6,200 -840 Descending Atlanta TRACON
03:56PM 33.6333 -84.0667 301° West 213 245 6,000 -180 Descending Atlanta TRACON
03:57PM 33.6333 -84.1167 270° West 173 199 5,900 -600 Descending Atlanta TRACON
03:58PM 33.6333 -84.1833 270° West 183 211 4,800 -1,080 Descending Atlanta TRACON
03:59PM 33.6333 -84.2333 270° West 181 208 3,800 -960 Descending Atlanta TRACON
04:00PM 33.6333 -84.3000 270° West 184 212 2,900 -900 Descending Atlanta TRACON
04:01PM 33.6333 -84.3500 270° West 153 176 2,000 -840 Descending Atlanta TRACON
04:02PM 33.6333 -84.4000 270° West 130 150 1,300 -720 Descending Atlanta TRACON
04:04PM 33.6333 -84.4167 270° West  Level FlightAware Approximate
04:11PM 33.6367 -84.4279 270° West  Level Estimated